Time;durP1;ratioP1;P1;durP2;ratioP2;P2;SDS_P1;SDS_P2;PMS_P1;PMS_P2;Temp;Humidity;BMP_temperature;BMP_pressure;BME280_temperature;BME280_humidity;BME280_pressure;Samples;Min_cycle;Max_cycle;Signal;HPM_P1;HPM_P2
2022/05/06 00:01:55;;;;;;;25.10;15.95;;;7.60;99.90;;;;;;4974421;28;20041;-82
2022/05/06 00:04:21;;;;;;;29.75;16.92;;;7.60;99.90;;;;;;4990354;28;20485;-81
2022/05/06 00:06:47;;;;;;;27.25;15.93;;;7.60;99.90;;;;;;5007556;28;20057;-83
2022/05/06 00:09:13;;;;;;;25.25;15.02;;;7.50;99.90;;;;;;4974546;28;20038;-82
2022/05/06 00:11:39;;;;;;;28.60;16.15;;;7.50;99.90;;;;;;5025290;28;20049;-81
2022/05/06 00:14:04;;;;;;;29.00;15.02;;;7.50;99.90;;;;;;5007165;28;20085;-82
2022/05/06 00:16:30;;;;;;;23.92;15.10;;;7.40;99.90;;;;;;4991122;28;20073;-83
2022/05/06 00:18:56;;;;;;;23.73;14.73;;;7.40;99.90;;;;;;4968140;28;20129;-82
2022/05/06 00:21:22;;;;;;;21.98;13.20;;;7.30;99.90;;;;;;4990518;28;20492;-82
2022/05/06 00:23:48;;;;;;;23.27;13.15;;;7.30;99.90;;;;;;5004996;28;20049;-83
2022/05/06 00:26:14;;;;;;;19.77;12.80;;;7.30;99.90;;;;;;4971728;28;20054;-82
2022/05/06 00:28:40;;;;;;;20.50;11.82;;;7.30;99.90;;;;;;4974313;28;20042;-81
2022/05/06 00:31:09;;;;;;;20.88;13.23;;;7.30;99.90;;;;;;5005836;28;20046;-81
2022/05/06 00:33:35;;;;;;;22.83;13.30;;;7.40;99.90;;;;;;4990394;28;20050;-81
2022/05/06 00:36:03;;;;;;;20.50;13.25;;;7.30;99.90;;;;;;4989531;28;20136;-82
2022/05/06 00:38:30;;;;;;;22.98;13.52;;;7.20;99.90;;;;;;5008110;28;20096;-82
2022/05/06 00:40:56;;;;;;;22.88;13.10;;;7.20;99.90;;;;;;4987502;28;20042;-82
2022/05/06 00:43:26;;;;;;;21.13;12.68;;;7.10;99.90;;;;;;5005250;28;20054;-82
2022/05/06 00:45:56;;;;;;;22.50;12.45;;;7.10;99.90;;;;;;5006354;28;20133;-82
2022/05/06 00:48:25;;;;;;;20.08;11.88;;;7.00;99.90;;;;;;4974766;28;20054;-82
2022/05/06 00:50:51;;;;;;;20.52;11.43;;;7.00;99.90;;;;;;4998238;28;20050;-83
2022/05/06 00:53:17;;;;;;;17.13;9.98;;;7.00;99.90;;;;;;4997039;28;20053;-81
2022/05/06 00:55:43;;;;;;;15.98;9.90;;;7.10;99.90;;;;;;5005908;28;20049;-81
2022/05/06 00:58:09;;;;;;;16.98;10.85;;;7.00;99.90;;;;;;4986175;28;20050;-81
2022/05/06 01:00:35;;;;;;;24.85;12.10;;;7.00;99.90;;;;;;5002743;28;20382;-81
2022/05/06 01:03:01;;;;;;;22.27;12.43;;;7.00;99.90;;;;;;4986160;28;20053;-82
2022/05/06 01:05:27;;;;;;;23.35;13.45;;;7.00;99.90;;;;;;4952630;28;20448;-82
2022/05/06 01:07:56;;;;;;;22.55;12.40;;;6.90;99.90;;;;;;4989063;28;20058;-81
2022/05/06 01:10:22;;;;;;;19.27;12.27;;;6.90;99.90;;;;;;5023332;28;20100;-82
2022/05/06 01:12:48;;;;;;;19.02;11.20;;;6.80;99.90;;;;;;4971544;28;20058;-81
2022/05/06 01:15:21;;;;;;;15.98;10.30;;;6.80;99.90;;;;;;5015703;28;20045;-81
2022/05/06 01:17:48;;;;;;;14.63;8.95;;;6.80;99.90;;;;;;5022167;28;20501;-82
2022/05/06 01:20:16;;;;;;;14.65;9.80;;;6.80;99.90;;;;;;5022639;28;20054;-81
2022/05/06 01:23:08;;;;;;;16.52;9.32;;;6.70;99.90;;;;;;4990141;28;20053;-80
2022/05/06 01:25:33;;;;;;;19.42;11.23;;;6.70;99.90;;;;;;4993194;28;20062;-81
2022/05/06 01:28:04;;;;;;;21.23;12.73;;;6.60;99.90;;;;;;4985856;28;20393;-81
2022/05/06 01:30:40;;;;;;;19.58;12.68;;;6.70;99.90;;;;;;4989819;28;20062;-83
2022/05/06 01:33:07;;;;;;;20.45;11.65;;;6.70;99.90;;;;;;4990031;28;21023;-81
2022/05/06 01:35:39;;;;;;;18.27;11.27;;;6.80;99.90;;;;;;5023913;28;20041;-81
2022/05/06 01:38:06;;;;;;;19.08;11.30;;;6.60;99.90;;;;;;4994148;28;20145;-81
2022/05/06 01:41:05;;;;;;;14.38;8.73;;;6.60;99.90;;;;;;4994049;28;20050;-81
2022/05/06 01:43:39;;;;;;;13.70;8.25;;;6.60;99.90;;;;;;5026527;28;20052;-81
2022/05/06 01:46:06;;;;;;;12.65;8.07;;;6.50;99.90;;;;;;5010701;28;20049;-81
2022/05/06 01:48:33;;;;;;;13.93;8.77;;;6.50;99.90;;;;;;4978317;28;20492;-82
2022/05/06 01:51:01;;;;;;;16.60;9.93;;;6.50;99.90;;;;;;4977410;28;20042;-82
2022/05/06 01:53:27;;;;;;;16.23;10.05;;;6.40;99.90;;;;;;5024996;28;20057;-82
2022/05/06 01:55:52;;;;;;;17.70;10.68;;;6.50;99.90;;;;;;5024334;28;20049;-83
2022/05/06 01:58:19;;;;;;;20.40;11.90;;;6.30;99.90;;;;;;4993351;28;20050;-81
2022/05/06 02:00:45;;;;;;;16.70;10.90;;;6.30;99.90;;;;;;4993812;28;20058;-81
2022/05/06 02:05:16;;;;;;;19.85;10.40;;;6.30;99.90;;;;;;4994222;28;20058;-82
2022/05/06 02:05:57;;;;;;;14.02;9.57;;;6.30;99.90;;;;;;5014228;28;20054;-82
2022/05/06 02:08:22;;;;;;;16.23;9.48;;;6.20;99.90;;;;;;4990970;28;20508;-80
2022/05/06 02:10:48;;;;;;;16.75;10.43;;;6.10;99.90;;;;;;5026334;28;20045;-82
2022/05/06 02:13:14;;;;;;;19.80;10.73;;;6.10;99.90;;;;;;4993755;28;20042;-82
2022/05/06 02:15:40;;;;;;;22.10;11.88;;;6.20;99.90;;;;;;5008368;28;20074;-81
2022/05/06 02:18:06;;;;;;;21.65;12.88;;;6.10;99.90;;;;;;4994024;28;20054;-82
2022/05/06 02:20:31;;;;;;;24.55;13.38;;;6.10;99.90;;;;;;4993259;28;20066;-83
2022/05/06 02:22:57;;;;;;;24.42;13.93;;;6.10;99.90;;;;;;4991702;28;20555;-81
2022/05/06 02:25:23;;;;;;;26.75;14.98;;;6.10;99.90;;;;;;4993834;28;20132;-82
2022/05/06 02:27:50;;;;;;;19.85;12.52;;;6.10;99.90;;;;;;4992326;28;20073;-82
2022/05/06 02:33:16;;;;;;;24.48;12.45;;;6.00;99.90;;;;;;5008858;28;20045;-81
2022/05/06 02:35:46;;;;;;;28.13;15.18;;;6.00;99.90;;;;;;4993581;28;20060;-82
2022/05/06 02:38:12;;;;;;;26.17;14.73;;;5.90;99.90;;;;;;4991332;28;20081;-83
2022/05/06 02:40:39;;;;;;;28.80;16.67;;;5.90;99.90;;;;;;5018793;28;20042;-81
2022/05/06 02:43:05;;;;;;;32.55;16.85;;;5.90;99.90;;;;;;4988746;28;20049;-83
2022/05/06 02:45:34;;;;;;;31.52;16.80;;;5.90;99.90;;;;;;4996026;28;20045;-82
2022/05/06 02:48:00;;;;;;;32.30;16.95;;;5.80;99.90;;;;;;5007886;28;20034;-83
2022/05/06 02:50:26;;;;;;;29.00;15.30;;;5.80;99.90;;;;;;5004765;28;20128;-82
2022/05/06 02:52:52;;;;;;;28.60;15.90;;;5.90;99.90;;;;;;5001629;28;20073;-82
2022/05/06 02:55:19;;;;;;;27.48;13.98;;;5.70;99.90;;;;;;4991577;28;20387;-82
2022/05/06 02:57:45;;;;;;;19.67;11.25;;;5.70;99.90;;;;;;5005476;28;20053;-82
2022/05/06 03:00:12;;;;;;;26.60;14.45;;;5.70;99.90;;;;;;4991722;28;20331;-81
2022/05/06 03:02:38;;;;;;;25.45;14.48;;;5.70;99.90;;;;;;5025269;28;20057;-82
2022/05/06 03:05:04;;;;;;;20.92;11.48;;;5.80;99.90;;;;;;4992069;28;20050;-81
2022/05/06 03:07:30;;;;;;;18.38;10.40;;;5.60;99.90;;;;;;5009536;28;20161;-81
2022/05/06 03:09:56;;;;;;;14.40;8.63;;;5.60;99.90;;;;;;4974203;28;20659;-81
2022/05/06 03:12:26;;;;;;;15.35;8.95;;;5.60;99.90;;;;;;4976546;28;20050;-81
2022/05/06 03:14:52;;;;;;;14.90;8.95;;;5.60;99.90;;;;;;5005809;28;20050;-83
2022/05/06 03:17:17;;;;;;;15.20;9.38;;;5.60;99.90;;;;;;4977105;28;20104;-82
2022/05/06 03:19:43;;;;;;;18.08;10.00;;;5.60;99.90;;;;;;4988547;28;20085;-81
2022/05/06 03:22:09;;;;;;;17.83;9.95;;;5.70;99.90;;;;;;4976287;28;20553;-81
2022/05/06 03:24:35;;;;;;;14.38;8.80;;;5.50;99.90;;;;;;5008373;28;20088;-81
2022/05/06 03:27:00;;;;;;;16.58;8.88;;;5.50;99.90;;;;;;4991050;28;20034;-84
2022/05/06 03:29:26;;;;;;;15.05;9.32;;;5.40;99.90;;;;;;5025387;28;20119;-81
2022/05/06 03:31:53;;;;;;;16.02;9.55;;;5.40;99.90;;;;;;4991314;28;20111;-82
2022/05/06 03:34:20;;;;;;;20.33;10.32;;;5.40;99.90;;;;;;5023034;28;20574;-81
2022/05/06 03:36:46;;;;;;;19.85;10.18;;;5.30;99.90;;;;;;4985132;28;20129;-81
2022/05/06 03:39:12;;;;;;;20.70;10.70;;;5.30;99.90;;;;;;4990784;28;20054;-82
2022/05/06 03:41:38;;;;;;;19.85;11.65;;;5.30;99.90;;;;;;4991876;28;20057;-81
2022/05/06 03:44:07;;;;;;;22.08;11.48;;;5.30;99.90;;;;;;5006729;28;20038;-82
2022/05/06 03:46:33;;;;;;;19.65;11.10;;;5.40;99.90;;;;;;5023530;28;20497;-82
2022/05/06 03:49:01;;;;;;;18.77;10.65;;;5.20;99.90;;;;;;5004899;28;20069;-81
2022/05/06 03:51:28;;;;;;;19.50;9.95;;;5.20;99.90;;;;;;4972647;28;20061;-82
2022/05/06 03:53:58;;;;;;;16.30;9.60;;;5.20;99.90;;;;;;4975644;28;20149;-81
2022/05/06 03:56:25;;;;;;;17.38;9.32;;;5.20;99.90;;;;;;5017118;28;20447;-81
2022/05/06 03:58:51;;;;;;;16.77;9.05;;;5.30;99.90;;;;;;5022292;28;20121;-82
2022/05/06 04:01:19;;;;;;;14.35;8.32;;;5.30;99.90;;;;;;4975263;28;20432;-82
2022/05/06 04:03:46;;;;;;;15.98;9.60;;;5.40;99.90;;;;;;4972046;28;20557;-81
2022/05/06 04:06:13;;;;;;;28.50;13.88;;;5.40;99.90;;;;;;4966298;28;20162;-82
2022/05/06 04:08:41;;;;;;;24.85;13.23;;;5.40;99.90;;;;;;5006755;28;20563;-81
2022/05/06 04:11:08;;;;;;;22.98;12.07;;;5.40;99.90;;;;;;5005627;28;20049;-81
2022/05/06 04:13:34;;;;;;;19.73;11.05;;;5.40;99.90;;;;;;5021012;28;20042;-82
2022/05/06 04:16:01;;;;;;;20.83;11.68;;;5.50;99.90;;;;;;4992605;28;20128;-82
2022/05/06 04:18:28;;;;;;;21.67;12.65;;;5.50;99.90;;;;;;5006395;28;20053;-82
2022/05/06 04:23:38;;;;;;;21.27;12.93;;;5.50;99.90;;;;;;4991588;28;20116;-82
2022/05/06 04:26:10;;;;;;;23.45;13.25;;;5.60;99.90;;;;;;4976154;28;20493;-82
2022/05/06 04:28:36;;;;;;;23.50;12.55;;;5.60;99.90;;;;;;4990890;28;21140;-82
2022/05/06 04:31:02;;;;;;;23.05;12.82;;;5.60;99.90;;;;;;4992261;28;20057;-82
2022/05/06 04:33:28;;;;;;;24.15;12.77;;;5.60;99.90;;;;;;4990632;28;20165;-81
2022/05/06 04:35:59;;;;;;;22.02;12.55;;;5.60;99.90;;;;;;5025117;28;20132;-82
2022/05/06 04:38:25;;;;;;;23.38;13.45;;;5.60;99.90;;;;;;4989877;28;20443;-80
2022/05/06 04:40:54;;;;;;;22.50;12.10;;;5.60;99.90;;;;;;5006989;28;20053;-83
2022/05/06 04:43:20;;;;;;;21.77;13.00;;;5.70;99.90;;;;;;4977002;28;20069;-81
2022/05/06 04:45:49;;;;;;;21.40;12.73;;;5.60;99.90;;;;;;4989227;28;20046;-81
2022/05/06 04:48:15;;;;;;;21.95;13.10;;;5.60;99.90;;;;;;4987726;28;20050;-82
2022/05/06 04:50:41;;;;;;;26.40;13.43;;;5.70;99.90;;;;;;5005982;28;20045;-80
2022/05/06 04:53:09;;;;;;;21.00;12.43;;;5.70;99.90;;;;;;5024413;28;20060;-82
2022/05/06 04:55:35;;;;;;;22.20;12.77;;;5.70;99.90;;;;;;4990980;28;20125;-81
2022/05/06 04:58:02;;;;;;;26.73;13.52;;;5.70;99.90;;;;;;5024560;28;20049;-81
2022/05/06 05:00:28;;;;;;;27.55;14.93;;;5.80;99.90;;;;;;5022817;28;20098;-85
2022/05/06 05:02:54;;;;;;;23.80;13.48;;;5.80;99.90;;;;;;4971940;28;20129;-81
2022/05/06 05:05:20;;;;;;;27.60;13.32;;;5.80;99.90;;;;;;5004645;28;20552;-80
2022/05/06 05:07:46;;;;;;;27.98;13.98;;;5.80;99.90;;;;;;4989973;28;20046;-81
2022/05/06 05:10:12;;;;;;;27.15;16.13;;;5.80;99.90;;;;;;5024408;28;20052;-81
2022/05/06 05:12:38;;;;;;;28.00;15.82;;;5.90;99.90;;;;;;5028328;28;20049;-80
2022/05/06 05:15:04;;;;;;;33.78;16.95;;;5.90;99.90;;;;;;4996131;28;20069;-81
2022/05/06 05:17:30;;;;;;;35.95;18.08;;;6.00;99.90;;;;;;5027445;28;20152;-81
2022/05/06 05:19:56;;;;;;;38.85;21.73;;;6.10;99.90;;;;;;5027822;28;20125;-81
2022/05/06 05:22:22;;;;;;;46.95;23.27;;;6.10;99.90;;;;;;4975444;28;20112;-80
2022/05/06 05:24:48;;;;;;;50.33;25.95;;;6.30;99.90;;;;;;4973502;28;20038;-81
2022/05/06 05:27:15;;;;;;;46.80;23.48;;;6.40;99.90;;;;;;5016297;28;20056;-81
2022/05/06 05:29:42;;;;;;;47.28;23.33;;;6.50;99.90;;;;;;4995052;28;20057;-82
2022/05/06 05:32:08;;;;;;;53.38;25.75;;;6.50;99.90;;;;;;5025301;28;20057;-83
2022/05/06 05:34:34;;;;;;;47.72;23.92;;;6.50;99.90;;;;;;4994193;28;20046;-81
2022/05/06 05:37:00;;;;;;;50.00;25.48;;;6.70;99.90;;;;;;4973796;28;20101;-82
2022/05/06 05:39:31;;;;;;;51.72;24.50;;;6.70;99.90;;;;;;5023833;28;20374;-80
2022/05/06 05:41:57;;;;;;;45.90;24.35;;;6.80;99.90;;;;;;4998804;28;20058;-81
2022/05/06 05:49:51;;;;;;;56.72;23.73;;;7.00;99.90;;;;;;5024563;28;20048;-82
2022/05/06 05:52:17;;;;;;;51.50;23.90;;;7.10;99.90;;;;;;5014211;28;20050;-82
2022/05/06 05:54:42;;;;;;;81.60;26.30;;;7.30;99.90;;;;;;4974313;28;20042;-84
2022/05/06 05:57:08;;;;;;;98.07;27.52;;;7.30;99.90;;;;;;4991983;28;20053;-83
2022/05/06 05:59:34;;;;;;;85.80;27.63;;;7.50;99.90;;;;;;4991491;28;20551;-78
2022/05/06 06:02:01;;;;;;;137.02;28.25;;;7.70;99.90;;;;;;4993255;28;20045;-78
2022/05/06 06:04:27;;;;;;;111.45;28.52;;;7.90;99.90;;;;;;5027041;28;20089;-78
2022/05/06 06:06:53;;;;;;;90.07;29.05;;;8.00;99.90;;;;;;4991094;28;20105;-80
2022/05/06 06:09:22;;;;;;;126.53;28.63;;;8.10;99.90;;;;;;5026800;28;20397;-77
2022/05/06 06:11:49;;;;;;;69.03;24.77;;;8.30;99.90;;;;;;4990059;28;20065;-78
2022/05/06 06:14:16;;;;;;;58.97;26.77;;;8.40;99.90;;;;;;5003880;28;20042;-82
2022/05/06 06:16:44;;;;;;;64.38;26.25;;;8.60;99.90;;;;;;5026729;28;20104;-79
2022/05/06 06:19:11;;;;;;;60.42;24.33;;;8.80;99.90;;;;;;4977453;28;20046;-79
2022/05/06 06:21:37;;;;;;;63.10;24.50;;;8.90;99.90;;;;;;4992857;28;20065;-78
2022/05/06 06:24:03;;;;;;;68.57;24.17;;;9.10;99.90;;;;;;5025602;28;20103;-77
2022/05/06 06:26:29;;;;;;;75.05;25.23;;;9.20;99.90;;;;;;5024675;28;20057;-77
2022/05/06 06:28:54;;;;;;;68.35;24.48;;;9.40;99.90;;;;;;4993039;28;20042;-77
2022/05/06 06:31:21;;;;;;;65.50;25.20;;;9.50;99.90;;;;;;5024818;28;20064;-77
2022/05/06 06:33:47;;;;;;;63.08;27.20;;;9.70;99.90;;;;;;4960811;28;20049;-78
2022/05/06 06:36:13;;;;;;;87.20;27.60;;;10.00;99.90;;;;;;4993724;28;20524;-77
2022/05/06 06:38:39;;;;;;;54.15;24.98;;;10.20;99.90;;;;;;4992586;28;20050;-77
2022/05/06 06:41:05;;;;;;;70.07;27.02;;;10.30;99.90;;;;;;4989448;28;20049;-78
2022/05/06 06:43:31;;;;;;;53.88;26.13;;;10.50;99.90;;;;;;4974568;28;20077;-77
2022/05/06 06:45:57;;;;;;;50.47;25.67;;;10.50;99.90;;;;;;4991594;28;20050;-77
2022/05/06 06:48:24;;;;;;;44.95;25.20;;;10.60;99.90;;;;;;4992765;28;20084;-76
2022/05/06 06:50:52;;;;;;;52.33;25.50;;;10.80;99.90;;;;;;5025305;28;20061;-76
2022/05/06 06:53:19;;;;;;;46.72;25.48;;;11.00;99.90;;;;;;5020184;28;20085;-76
2022/05/06 06:55:45;;;;;;;47.75;24.58;;;11.10;99.90;;;;;;4976555;28;20410;-77
2022/05/06 06:58:11;;;;;;;47.53;23.75;;;11.30;99.90;;;;;;4991995;28;20046;-77
2022/05/06 07:00:37;;;;;;;45.88;24.40;;;11.30;99.90;;;;;;4958871;28;20125;-78
2022/05/06 07:03:03;;;;;;;49.25;24.55;;;11.40;99.90;;;;;;5025068;28;20432;-77
2022/05/06 07:05:30;;;;;;;52.45;26.25;;;11.50;99.90;;;;;;5025063;28;20050;-77
2022/05/06 07:13:24;;;;;;;50.15;28.08;;;11.80;99.90;;;;;;5007332;28;20578;-78
2022/05/06 07:15:50;;;;;;;51.80;28.65;;;12.00;99.90;;;;;;5025661;28;20042;-78
2022/05/06 07:18:16;;;;;;;49.53;27.58;;;12.20;99.90;;;;;;5025332;28;20091;-78
2022/05/06 07:20:42;;;;;;;51.05;29.10;;;12.30;99.90;;;;;;4936576;28;1157091;-78
2022/05/06 07:23:09;;;;;;;57.60;31.23;;;12.40;99.90;;;;;;4992179;28;20458;-78
2022/05/06 07:25:35;;;;;;;52.95;30.58;;;12.40;99.90;;;;;;4992669;28;20057;-80
2022/05/06 07:28:00;;;;;;;52.20;29.23;;;12.40;99.90;;;;;;4992257;28;20056;-82
2022/05/06 07:30:26;;;;;;;54.25;30.45;;;12.50;99.90;;;;;;4956817;28;20050;-80
2022/05/06 07:32:52;;;;;;;52.72;29.08;;;12.60;99.90;;;;;;4984921;28;20046;-80
2022/05/06 07:35:18;;;;;;;50.15;28.52;;;12.70;99.90;;;;;;4975049;28;20519;-82
2022/05/06 07:37:44;;;;;;;50.72;29.85;;;12.80;99.90;;;;;;4992941;28;20140;-80
2022/05/06 07:40:10;;;;;;;39.75;24.95;;;12.80;99.90;;;;;;5008848;28;20046;-80
2022/05/06 07:42:38;;;;;;;40.47;24.85;;;12.90;99.90;;;;;;4992388;28;20107;-79
2022/05/06 07:45:05;;;;;;;38.65;23.70;;;13.10;99.90;;;;;;4976852;28;20056;-79
2022/05/06 07:47:32;;;;;;;36.80;23.25;;;13.20;99.90;;;;;;4992759;28;20132;-79
2022/05/06 07:49:57;;;;;;;37.20;23.02;;;13.20;99.90;;;;;;5005945;28;20057;-79
2022/05/06 07:52:23;;;;;;;36.60;21.52;;;13.30;99.90;;;;;;5025332;28;20559;-80
2022/05/06 07:54:49;;;;;;;36.00;23.13;;;13.40;99.90;;;;;;4977135;28;20049;-80
2022/05/06 07:57:15;;;;;;;33.08;20.30;;;13.40;99.90;;;;;;5009180;28;20125;-80
2022/05/06 07:59:41;;;;;;;33.55;20.58;;;13.60;99.90;;;;;;5008887;28;20128;-80
2022/05/06 08:04:52;;;;;;;30.23;19.20;;;14.00;99.90;;;;;;4995424;28;20054;-80
2022/05/06 08:07:18;;;;;;;30.67;19.83;;;14.30;99.90;;;;;;5009418;28;20042;-80
2022/05/06 08:09:44;;;;;;;29.63;19.38;;;14.40;99.90;;;;;;4959996;28;20489;-80
2022/05/06 08:12:10;;;;;;;28.92;20.48;;;14.60;99.90;;;;;;5009173;28;20042;-80
2022/05/06 08:14:37;;;;;;;28.58;19.35;;;14.60;99.90;;;;;;4976173;28;20394;-79
2022/05/06 08:17:03;;;;;;;23.65;16.77;;;14.80;99.90;;;;;;4989146;28;20448;-80
2022/05/06 08:19:29;;;;;;;26.98;17.45;;;14.80;99.90;;;;;;4991318;28;20072;-79
2022/05/06 08:21:55;;;;;;;24.45;16.92;;;14.90;99.90;;;;;;4976536;28;20045;-80
2022/05/06 08:24:22;;;;;;;26.20;17.27;;;15.00;99.90;;;;;;4992388;28;20103;-81
2022/05/06 08:26:48;;;;;;;23.17;15.40;;;15.10;99.90;;;;;;4992154;28;20058;-81
2022/05/06 08:29:14;;;;;;;20.88;14.82;;;15.40;99.90;;;;;;4976411;28;20112;-79
2022/05/06 08:31:41;;;;;;;20.98;14.48;;;15.90;99.90;;;;;;4991894;28;20046;-79
2022/05/06 08:34:12;;;;;;;18.08;12.90;;;16.30;99.90;;;;;;5008826;28;20128;-80
2022/05/06 08:36:43;;;;;;;14.98;11.48;;;16.50;99.90;;;;;;4991912;28;20057;-80
2022/05/06 08:39:11;;;;;;;15.63;11.15;;;16.30;99.90;;;;;;4992640;28;20137;-80
2022/05/06 08:41:41;;;;;;;16.35;11.50;;;16.80;99.90;;;;;;4991811;28;20069;-80
2022/05/06 08:52:40;;;;;;;13.43;9.68;;;19.60;99.90;;;;;;5011013;28;20112;-82
2022/05/06 08:55:07;;;;;;;10.32;9.02;;;20.30;99.90;;;;;;5025334;28;20125;-80
2022/05/06 08:57:33;;;;;;;10.40;9.10;;;20.90;96.50;;;;;;5008307;28;20046;-81
2022/05/06 08:59:59;;;;;;;10.40;8.50;;;20.90;94.40;;;;;;5025149;28;20480;-81
2022/05/06 09:02:25;;;;;;;10.25;8.50;;;20.50;94.00;;;;;;5008429;28;20060;-82
2022/05/06 09:04:50;;;;;;;11.02;8.63;;;21.00;93.90;;;;;;5024442;28;20473;-80
2022/05/06 09:07:20;;;;;;;8.45;7.55;;;21.10;90.90;;;;;;5024807;28;20157;-79
2022/05/06 09:10:14;;;;;;;8.13;7.32;;;20.70;89.50;;;;;;4991718;28;20053;-79
2022/05/06 09:12:42;;;;;;;6.70;6.00;;;20.80;77.70;;;;;;5007650;28;20046;-82
2022/05/06 09:18:04;;;;;;;8.35;6.60;;;19.90;82.80;;;;;;5010837;28;20054;-80
2022/05/06 09:20:30;;;;;;;7.10;6.40;;;19.40;85.60;;;;;;5007495;28;20065;-80
2022/05/06 09:22:56;;;;;;;7.40;6.68;;;19.10;89.30;;;;;;5008117;28;20054;-80
2022/05/06 09:25:51;;;;;;;7.68;6.82;;;19.30;90.90;;;;;;4976064;28;20069;-80
2022/05/06 09:28:25;;;;;;;5.93;5.32;;;19.80;90.60;;;;;;5008351;28;20062;-80
2022/05/06 09:31:04;;;;;;;5.43;4.93;;;21.00;81.30;;;;;;5004008;28;20046;-80
2022/05/06 09:33:35;;;;;;;6.00;5.00;;;21.50;71.10;;;;;;4971342;28;20055;-80
2022/05/06 09:36:29;;;;;;;5.90;5.40;;;21.80;70.30;;;;;;4988436;28;20069;-79
2022/05/06 09:39:10;;;;;;;5.28;4.78;;;22.10;64.30;;;;;;4972456;28;20056;-81
2022/05/06 09:41:38;;;;;;;5.20;4.80;;;22.20;63.00;;;;;;4988065;28;20156;-80
2022/05/06 09:44:06;;;;;;;5.47;4.78;;;22.00;67.20;;;;;;4988356;28;20046;-80
2022/05/06 09:46:32;;;;;;;6.53;5.22;;;22.00;64.50;;;;;;4971952;28;20054;-81
2022/05/06 09:49:00;;;;;;;6.00;5.30;;;21.70;63.80;;;;;;4996143;28;20492;-80
2022/05/06 09:51:27;;;;;;;5.57;4.88;;;21.50;64.30;;;;;;5008063;28;20076;-79
2022/05/06 09:53:56;;;;;;;5.07;4.38;;;21.60;64.60;;;;;;5007443;28;20042;-80
2022/05/06 09:56:24;;;;;;;4.90;4.38;;;21.80;63.20;;;;;;5008496;28;20099;-80
2022/05/06 09:58:54;;;;;;;5.47;4.97;;;21.70;64.10;;;;;;5010810;28;20151;-80
2022/05/06 10:01:21;;;;;;;6.32;5.28;;;21.80;63.50;;;;;;5011367;28;20046;-80
2022/05/06 10:03:47;;;;;;;7.07;4.85;;;22.00;63.10;;;;;;5010799;28;20057;-79
2022/05/06 10:06:13;;;;;;;6.28;5.07;;;22.10;63.20;;;;;;5011429;28;20050;-80
2022/05/06 10:08:48;;;;;;;7.72;4.70;;;22.50;61.80;;;;;;5010744;28;20050;-80
2022/05/06 10:11:17;;;;;;;4.97;4.50;;;23.30;60.00;;;;;;5011424;28;20058;-81
2022/05/06 10:13:46;;;;;;;5.90;5.30;;;24.20;56.00;;;;;;5010394;28;20046;-80
2022/05/06 10:16:12;;;;;;;5.47;4.97;;;24.70;53.60;;;;;;5010545;28;20061;-80
2022/05/06 10:18:40;;;;;;;7.57;4.57;;;25.10;52.20;;;;;;4994046;28;20046;-79
2022/05/06 10:21:09;;;;;;;7.18;4.53;;;25.50;50.70;;;;;;5010591;28;20501;-80
2022/05/06 10:23:55;;;;;;;4.70;4.30;;;25.90;49.40;;;;;;5010438;28;20133;-80
2022/05/06 10:26:33;;;;;;;6.00;3.90;;;26.50;44.70;;;;;;5011209;28;20396;-80
2022/05/06 10:34:30;;;;;;;4.72;3.70;;;27.60;44.20;;;;;;4997354;28;20120;-82
2022/05/06 10:37:00;;;;;;;4.38;3.63;;;28.20;42.60;;;;;;5010660;28;20045;-80
2022/05/06 10:39:32;;;;;;;3.58;3.28;;;28.50;40.40;;;;;;5010689;28;20485;-80
2022/05/06 10:42:12;;;;;;;3.63;3.33;;;28.20;37.30;;;;;;4994462;28;20112;-79
2022/05/06 10:44:42;;;;;;;6.05;4.60;;;27.90;38.80;;;;;;5009607;28;20492;-80
2022/05/06 10:47:18;;;;;;;4.90;4.20;;;28.30;39.40;;;;;;5010696;28;20333;-81
2022/05/06 10:49:51;;;;;;;6.47;3.22;;;28.40;38.30;;;;;;5010260;28;20133;-80
2022/05/06 10:52:24;;;;;;;3.42;3.13;;;28.90;38.10;;;;;;5010453;28;20058;-80
2022/05/06 10:54:55;;;;;;;3.58;2.97;;;29.10;37.10;;;;;;5010167;28;20180;-80
2022/05/06 10:57:22;;;;;;;5.20;3.33;;;29.20;37.50;;;;;;5010660;28;20057;-80
2022/05/06 10:59:56;;;;;;;4.93;3.45;;;29.20;36.10;;;;;;5009929;28;20085;-80
2022/05/06 11:02:27;;;;;;;5.65;2.95;;;28.80;36.00;;;;;;4963122;28;20057;-80
2022/05/06 11:05:04;;;;;;;4.07;3.67;;;28.60;36.70;;;;;;5009466;28;20046;-80
2022/05/06 11:07:34;;;;;;;3.60;2.42;;;28.80;36.20;;;;;;5009977;28;20112;-80
2022/05/06 11:10:10;;;;;;;4.13;2.45;;;29.30;36.50;;;;;;5009626;28;20045;-80
2022/05/06 11:12:40;;;;;;;2.72;2.53;;;29.90;34.80;;;;;;5009655;28;20049;-81
2022/05/06 11:15:10;;;;;;;3.22;2.60;;;29.20;31.20;;;;;;5010102;28;20053;-80
2022/05/06 11:17:36;;;;;;;3.38;2.60;;;28.50;33.30;;;;;;4993406;28;20108;-80
2022/05/06 11:20:21;;;;;;;2.60;2.40;;;27.60;35.10;;;;;;5009724;28;20085;-80
2022/05/06 11:22:57;;;;;;;3.20;2.90;;;27.40;35.30;;;;;;5009665;28;20815;-80
2022/05/06 11:25:25;;;;;;;3.28;2.75;;;27.50;35.50;;;;;;5010051;28;20085;-80
2022/05/06 11:27:55;;;;;;;5.28;3.30;;;28.10;35.50;;;;;;5009305;28;20065;-79
2022/05/06 11:30:22;;;;;;;4.05;2.50;;;28.60;34.30;;;;;;5009837;28;20052;-80
2022/05/06 11:32:53;;;;;;;3.08;2.13;;;29.10;33.50;;;;;;5009202;28;20598;-81
2022/05/06 11:35:43;;;;;;;7.75;2.42;;;29.80;32.80;;;;;;5010141;28;20050;-80
2022/05/06 11:38:09;;;;;;;4.03;1.50;;;29.60;29.90;;;;;;5003159;28;20093;-80
2022/05/06 11:40:36;;;;;;;2.95;2.17;;;29.30;30.00;;;;;;5009188;28;20140;-82
2022/05/06 11:43:04;;;;;;;1.80;1.70;;;29.70;29.70;;;;;;5009598;28;20404;-81
2022/05/06 11:48:20;;;;;;;3.20;2.08;;;30.40;28.80;;;;;;4995747;28;20065;-81
2022/05/06 11:50:48;;;;;;;2.33;1.13;;;30.20;28.30;;;;;;5009823;28;20054;-80
2022/05/06 11:53:17;;;;;;;1.85;0.95;;;29.90;27.80;;;;;;5009429;28;20073;-81
2022/05/06 11:55:44;;;;;;;2.80;0.90;;;29.60;27.70;;;;;;5008875;28;20054;-80
2022/05/06 11:58:16;;;;;;;2.15;1.00;;;29.00;28.30;;;;;;5009347;28;20076;-80
2022/05/06 12:00:43;;;;;;;2.85;1.15;;;29.10;28.50;;;;;;5008951;28;20076;-79
2022/05/06 12:03:10;;;;;;;3.35;1.33;;;29.40;28.10;;;;;;5008976;28;20050;-81
2022/05/06 12:05:38;;;;;;;2.63;1.20;;;29.50;27.90;;;;;;4992666;28;20042;-82
2022/05/06 12:08:05;;;;;;;1.50;1.00;;;29.70;27.90;;;;;;5009328;28;20042;-80
2022/05/06 12:10:36;;;;;;;4.10;0.90;;;29.30;28.40;;;;;;5009224;28;20049;-80
2022/05/06 12:13:10;;;;;;;2.22;1.00;;;29.20;29.50;;;;;;5008934;28;20061;-81
2022/05/06 12:15:41;;;;;;;2.25;1.08;;;29.80;28.50;;;;;;4990871;28;20057;-82
2022/05/06 12:18:25;;;;;;;4.15;0.80;;;29.70;29.50;;;;;;5002543;28;20219;-80
2022/05/06 12:20:51;;;;;;;4.50;1.10;;;30.20;28.90;;;;;;4974883;28;20120;-80
2022/05/06 12:23:30;;;;;;;1.17;0.80;;;30.60;28.30;;;;;;4960413;28;20076;-78
2022/05/06 12:25:57;;;;;;;2.15;1.15;;;30.40;27.90;;;;;;5008308;28;20137;-78
2022/05/06 12:28:23;;;;;;;1.13;0.90;;;30.80;28.90;;;;;;4992480;28;20100;-78
2022/05/06 12:30:56;;;;;;;3.67;1.23;;;31.40;28.20;;;;;;4992041;28;20050;-79
2022/05/06 12:33:33;;;;;;;2.50;1.60;;;31.80;28.00;;;;;;4992401;28;20057;-78
2022/05/06 12:36:04;;;;;;;3.92;1.08;;;32.30;27.70;;;;;;5007873;28;20603;-78
2022/05/06 12:38:39;;;;;;;3.13;1.08;;;32.90;27.30;;;;;;4992451;28;20115;-78
2022/05/06 12:41:25;;;;;;;2.38;1.25;;;33.10;26.60;;;;;;4992174;28;20046;-78
2022/05/06 12:43:54;;;;;;;1.67;1.10;;;33.10;26.60;;;;;;5007779;28;20042;-81
2022/05/06 12:46:30;;;;;;;3.85;0.93;;;33.10;26.70;;;;;;5008823;28;20052;-80
2022/05/06 12:51:43;;;;;;;2.70;0.90;;;32.80;26.50;;;;;;4994363;28;20088;-81
2022/05/06 12:54:10;;;;;;;1.52;1.20;;;32.60;27.00;;;;;;4960237;28;20049;-81
2022/05/06 12:56:37;;;;;;;2.55;0.93;;;33.30;26.50;;;;;;5008646;28;20388;-80
2022/05/06 12:59:03;;;;;;;4.05;1.20;;;33.50;26.10;;;;;;5008055;28;20061;-81
2022/05/06 13:01:29;;;;;;;2.80;1.30;;;32.60;26.30;;;;;;5008644;28;20065;-81
2022/05/06 13:03:55;;;;;;;5.43;1.90;;;31.80;27.10;;;;;;5007609;28;20405;-81
2022/05/06 13:06:21;;;;;;;7.97;2.05;;;31.80;27.40;;;;;;5008599;28;20042;-80
2022/05/06 13:08:47;;;;;;;3.28;1.40;;;31.90;27.40;;;;;;5008007;28;20045;-80
2022/05/06 13:11:12;;;;;;;2.40;1.52;;;31.20;27.90;;;;;;4960018;28;20639;-81
2022/05/06 13:13:38;;;;;;;2.38;1.30;;;30.30;28.80;;;;;;4976124;28;20050;-80
2022/05/06 13:16:04;;;;;;;3.00;1.48;;;29.60;29.30;;;;;;4975557;28;20050;-79
2022/05/06 13:18:32;;;;;;;1.88;1.60;;;28.20;31.10;;;;;;5008355;28;20049;-79
2022/05/06 13:20:58;;;;;;;4.63;1.60;;;27.20;33.10;;;;;;5007538;28;20062;-80
2022/05/06 13:23:24;;;;;;;2.67;1.60;;;26.10;35.50;;;;;;5008449;28;20065;-81
2022/05/06 13:25:50;;;;;;;2.85;1.58;;;26.70;35.50;;;;;;5007800;28;20042;-80